Terminal Aerodrome Forecast
Issued by NWS Quad Cities IA IL

Home | Current Version | Previous Version | Text Only | Print | Product List | Glossary On
Versions: 1 2 3 4 5 6 7 8 9 10 11 12 13 14 15 16 17 18 19 20 21 22 23 24
153
FTUS43 KDVN 252320
TAFDBQ
TAF
KDBQ 252320Z 2600/2624 12003KT P6SM FEW040
     FM260800 14005KT P6SM BKN080
     FM261500 12010KT P6SM VCTS BKN040CB
     FM262000 08007KT 6SM HZ OVC030=

USA.gov is the U.S. government's official web portal to all federal, state and local government web resources and services.